Arklow Wind — EIKZ — position and weather

sailwx.info

Track history (hours):
 
Tides and Currents Weather Stations Pressure Air Temp Water Temp Dewpoint Dewpoint Depression Visibility Wind Speed Wind Dir Waves Ship Positions

Arklow Wind

Last reported at 2017-Mar-28 03:32 UTC. Time now 2017-Mar-28 04:10 UTC.
Position N 51°00' E 002°11'.

Length 136 m; draft 8.7 m.

Type: Cargo ship. MMSI: 250506000.

Date/timePositionNaut miles runAvg speedWind from/ knotsBaromVisibWave heightAir tempDewpointWater temp
2017-Mar-28 03:32N 51°00' E 002°11'0 0.0
2017-Mar-28 02:32N 51°00' E 002°11'0 0.0
2017-Mar-28 01:32N 51°00' E 002°11'0 0.0
2017-Mar-28 00:32N 51°00' E 002°11'0 0.0
2017-Mar-27 23:32N 51°00' E 002°11'0 0.0
2017-Mar-27 22:32N 51°00' E 002°11'0 0.0
2017-Mar-27 21:32N 51°00' E 002°11'0 0.0
2017-Mar-27 20:32N 51°00' E 002°11'0 0.0
2017-Mar-27 19:32N 51°00' E 002°11'0 0.0
2017-Mar-27 18:20N 51°00' E 002°11'0 0.0
2017-Mar-27 17:32N 51°00' E 002°11'0 0.0
2017-Mar-27 16:32N 51°00' E 002°11'0 0.0
2017-Mar-27 15:29N 51°00' E 002°11'0 0.0
2017-Mar-27 14:29N 51°00' E 002°11'0 0.0
2017-Mar-27 13:26N 51°00' E 002°11'0 0.0
2017-Mar-27 12:26N 51°00' E 002°11'0 0.0
2017-Mar-27 10:32N 51°00' E 002°11'0 0.0
2017-Mar-27 09:14N 51°00' E 002°11'0 0.0
2017-Mar-27 07:32N 51°00' E 002°11'0 0.0
2017-Mar-27 06:31N 51°00' E 002°11'0 0.0
2017-Mar-27 05:31N 51°00' E 002°11'0 0.0
2017-Mar-27 04:13N 51°00' E 002°11'0 0.0
2017-Mar-27 03:32N 51°00' E 002°11'4 4.1
2017-Mar-27 02:31N 51°03' E 002°06'1010.7
2017-Mar-27 01:33N 51°02' E 001°49'9 8.7
2017-Mar-27 00:33N 50°58' E 001°37'1010.2
2017-Mar-26 23:33N 50°50' E 001°27'4911.5
2017-Mar-26 19:21N 50°24' E 000°22'1012.1
2017-Mar-26 18:33N 50°21' E 000°08'1111.4
2017-Mar-26 17:33N 50°18' W 000°09'1110.7
2017-Mar-26 16:33N 50°15' W 000°25'1010.0
2017-Mar-26 15:33N 50°13' W 000°40'9 8.9
2017-Mar-26 14:33N 50°11' W 000°54'8 7.8
2017-Mar-26 13:33N 50°09' W 001°06'7 7.3
2017-Mar-26 12:33N 50°07' W 001°17'7 7.4
2017-Mar-26 11:33N 50°05' W 001°28'8 8.1
2017-Mar-26 10:33N 50°02' W 001°40'9 9.2
2017-Mar-26 09:33N 49°60' W 001°54'1110.5
2017-Mar-26 08:33N 49°57' W 002°10'4810.8
2017-Mar-26 04:05N 49°50' W 003°24'68 9.0
2017-Mar-25 20:32N 49°53' W 005°09'36 8.9
2017-Mar-25 16:32N 50°05' W 006°01'1111.2
2017-Mar-25 15:33N 50°16' W 006°01'9 9.2
2017-Mar-25 14:33N 50°23' W 006°11'3610.4
2017-Mar-25 11:06N 50°35' W 007°03'710.1
2017-Mar-25 10:23N 50°38' W 007°14'8110.3
2017-Mar-25 02:30N 51°07' W 009°14'1010.9
2017-Mar-25 01:33N 51°11' W 009°29'1111.0
2017-Mar-25 00:33N 51°15' W 009°45'1110.7
2017-Mar-24 23:33N 51°22' W 009°59'1010.4
2017-Mar-24 22:33N 51°27' W 010°13'46 9.2
2017-Mar-24 17:33N 52°10' W 010°40'  
2017-Mar-18 13:09N 52°17' W 010°25'610.4
2017-Mar-18 12:31N 52°13' W 010°34'29 7.2
2017-Mar-18 08:29N 51°44' W 010°36'12 6.1
2017-Mar-18 06:32N 51°34' W 010°26'6 5.2
2017-Mar-18 05:27N 51°30' W 010°20'5 5.2
2017-Mar-18 04:33N 51°27' W 010°14'5 5.4
2017-Mar-18 03:33N 51°24' W 010°07'  
Track history (hours):
 
Tides and Currents Weather Stations Pressure Air Temp Water Temp Dewpoint Dewpoint Depression Visibility Wind Speed Wind Dir Waves Ship Positions

Arklow Wind

Last reported at 2017-Mar-28 03:32 UTC. Time now 2017-Mar-28 04:10 UTC.
Position N 51°00' E 002°11'.

Length 136 m; draft 8.7 m.

Type: Cargo ship. MMSI: 250506000.

Date/timePositionNaut miles runAvg speedWind from/ knotsBaromVisibWave heightAir tempDewpointWater temp
2017-Mar-28 03:32N 51°00' E 002°11'0 0.0
2017-Mar-28 02:32N 51°00' E 002°11'0 0.0
2017-Mar-28 01:32N 51°00' E 002°11'0 0.0
2017-Mar-28 00:32N 51°00' E 002°11'0 0.0
2017-Mar-27 23:32N 51°00' E 002°11'0 0.0
2017-Mar-27 22:32N 51°00' E 002°11'0 0.0
2017-Mar-27 21:32N 51°00' E 002°11'0 0.0
2017-Mar-27 20:32N 51°00' E 002°11'0 0.0
2017-Mar-27 19:32N 51°00' E 002°11'0 0.0
2017-Mar-27 18:20N 51°00' E 002°11'0 0.0
2017-Mar-27 17:32N 51°00' E 002°11'0 0.0
2017-Mar-27 16:32N 51°00' E 002°11'0 0.0
2017-Mar-27 15:29N 51°00' E 002°11'0 0.0
2017-Mar-27 14:29N 51°00' E 002°11'0 0.0
2017-Mar-27 13:26N 51°00' E 002°11'0 0.0
2017-Mar-27 12:26N 51°00' E 002°11'0 0.0
2017-Mar-27 10:32N 51°00' E 002°11'0 0.0
2017-Mar-27 09:14N 51°00' E 002°11'0 0.0
2017-Mar-27 07:32N 51°00' E 002°11'0 0.0
2017-Mar-27 06:31N 51°00' E 002°11'0 0.0
2017-Mar-27 05:31N 51°00' E 002°11'0 0.0
2017-Mar-27 04:13N 51°00' E 002°11'0 0.0
2017-Mar-27 03:32N 51°00' E 002°11'4 4.1
2017-Mar-27 02:31N 51°03' E 002°06'1010.7
2017-Mar-27 01:33N 51°02' E 001°49'9 8.7
2017-Mar-27 00:33N 50°58' E 001°37'1010.2
2017-Mar-26 23:33N 50°50' E 001°27'4911.5
2017-Mar-26 19:21N 50°24' E 000°22'1012.1
2017-Mar-26 18:33N 50°21' E 000°08'1111.4
2017-Mar-26 17:33N 50°18' W 000°09'1110.7
2017-Mar-26 16:33N 50°15' W 000°25'1010.0
2017-Mar-26 15:33N 50°13' W 000°40'9 8.9
2017-Mar-26 14:33N 50°11' W 000°54'8 7.8
2017-Mar-26 13:33N 50°09' W 001°06'7 7.3
2017-Mar-26 12:33N 50°07' W 001°17'7 7.4
2017-Mar-26 11:33N 50°05' W 001°28'8 8.1
2017-Mar-26 10:33N 50°02' W 001°40'9 9.2
2017-Mar-26 09:33N 49°60' W 001°54'1110.5
2017-Mar-26 08:33N 49°57' W 002°10'4810.8
2017-Mar-26 04:05N 49°50' W 003°24'68 9.0
2017-Mar-25 20:32N 49°53' W 005°09'36 8.9
2017-Mar-25 16:32N 50°05' W 006°01'1111.2
2017-Mar-25 15:33N 50°16' W 006°01'9 9.2
2017-Mar-25 14:33N 50°23' W 006°11'3610.4
2017-Mar-25 11:06N 50°35' W 007°03'710.1
2017-Mar-25 10:23N 50°38' W 007°14'8110.3
2017-Mar-25 02:30N 51°07' W 009°14'1010.9
2017-Mar-25 01:33N 51°11' W 009°29'1111.0
2017-Mar-25 00:33N 51°15' W 009°45'1110.7
2017-Mar-24 23:33N 51°22' W 009°59'1010.4
2017-Mar-24 22:33N 51°27' W 010°13'46 9.2
2017-Mar-24 17:33N 52°10' W 010°40'  
2017-Mar-18 13:09N 52°17' W 010°25'610.4
2017-Mar-18 12:31N 52°13' W 010°34'29 7.2
2017-Mar-18 08:29N 51°44' W 010°36'12 6.1
2017-Mar-18 06:32N 51°34' W 010°26'6 5.2
2017-Mar-18 05:27N 51°30' W 010°20'5 5.2
2017-Mar-18 04:33N 51°27' W 010°14'5 5.4
2017-Mar-18 03:33N 51°24' W 010°07'  

Dump ship's entire track history